Larry Tilley — WY2160 — position and weather

sailwx.info

Track history (hours):
 
Tides and Currents Weather Stations Pressure Air Temp Water Temp Dewpoint Dewpoint Depression Visibility Wind Speed Wind Dir Waves Ship Positions

Larry Tilley

Owner: SOUTHERN TOWING COMPANY LLC., MEMPHIS, TN. More information available from US FCC via Universal Licensing System and Coast Guard Vessel Documentation Center.

Last reported at 2016-May-06 06:18 UTC. Time now 2016-May-26 06:51 UTC.
Position N 32°45' W 091°09'.
Warning: this ship's position is 20 days out of date.

Length 40 m; draft 8.6 m.

Type: Towing. MMSI: 366919230.

Date/timePositionNaut miles runAvg speedWind from/ knotsBaromVisibWave heightAir tempDewpointWater temp
2016-May-06 06:18N 32°45' W 091°09'4 5.5
2016-May-06 05:31N 32°44' W 091°04'5 4.4
2016-May-06 04:23N 32°40' W 091°08'4 5.3
2016-May-06 03:33N 32°36' W 091°08'5 4.9
2016-May-06 02:32N 32°31' W 091°07'5 4.9
2016-May-06 01:33N 32°27' W 091°04'5 4.8
2016-May-06 00:33N 32°23' W 090°60'4 4.3
2016-May-05 23:33N 32°21' W 090°56'4 3.9
2016-May-05 22:33N 32°17' W 090°57'6 5.6
2016-May-05 21:33N 32°12' W 090°59'5 5.0
2016-May-05 20:33N 32°07' W 091°02'4 3.9
2016-May-05 19:33N 32°07' W 091°06'5 4.9
2016-May-05 18:30N 32°02' W 091°04'  
2016-Apr-30 16:14N 31°60' W 091°05'5 7.0
2016-Apr-30 15:27N 32°05' W 091°05'4 4.3
2016-Apr-30 14:33N 32°07' W 091°01'8 8.2
2016-Apr-30 13:33N 32°15' W 090°59'6 6.0
2016-Apr-30 12:33N 32°21' W 090°56'7 7.2
2016-Apr-30 11:33N 32°26' W 091°02'8 7.6
2016-Apr-30 10:30N 32°33' W 091°06'  
Track history (hours):
 
Tides and Currents Weather Stations Pressure Air Temp Water Temp Dewpoint Dewpoint Depression Visibility Wind Speed Wind Dir Waves Ship Positions

Larry Tilley

Owner: SOUTHERN TOWING COMPANY LLC., MEMPHIS, TN. More information available from US FCC via Universal Licensing System and Coast Guard Vessel Documentation Center.

Last reported at 2016-May-06 06:18 UTC. Time now 2016-May-26 06:51 UTC.
Position N 32°45' W 091°09'.
Warning: this ship's position is 20 days out of date.

Length 40 m; draft 8.6 m.

Type: Towing. MMSI: 366919230.

Date/timePositionNaut miles runAvg speedWind from/ knotsBaromVisibWave heightAir tempDewpointWater temp
2016-May-06 06:18N 32°45' W 091°09'4 5.5
2016-May-06 05:31N 32°44' W 091°04'5 4.4
2016-May-06 04:23N 32°40' W 091°08'4 5.3
2016-May-06 03:33N 32°36' W 091°08'5 4.9
2016-May-06 02:32N 32°31' W 091°07'5 4.9
2016-May-06 01:33N 32°27' W 091°04'5 4.8
2016-May-06 00:33N 32°23' W 090°60'4 4.3
2016-May-05 23:33N 32°21' W 090°56'4 3.9
2016-May-05 22:33N 32°17' W 090°57'6 5.6
2016-May-05 21:33N 32°12' W 090°59'5 5.0
2016-May-05 20:33N 32°07' W 091°02'4 3.9
2016-May-05 19:33N 32°07' W 091°06'5 4.9
2016-May-05 18:30N 32°02' W 091°04'  
2016-Apr-30 16:14N 31°60' W 091°05'5 7.0
2016-Apr-30 15:27N 32°05' W 091°05'4 4.3
2016-Apr-30 14:33N 32°07' W 091°01'8 8.2
2016-Apr-30 13:33N 32°15' W 090°59'6 6.0
2016-Apr-30 12:33N 32°21' W 090°56'7 7.2
2016-Apr-30 11:33N 32°26' W 091°02'8 7.6
2016-Apr-30 10:30N 32°33' W 091°06'  

Dump ship's entire track history